Time;durP1;ratioP1;P1;durP2;ratioP2;P2;SDS_P1;SDS_P2;PMS_P1;PMS_P2;Temp;Humidity;BMP_temperature;BMP_pressure;BME280_temperature;BME280_humidity;BME280_pressure;Samples;Min_cycle;Max_cycle;Signal;HPM_P1;HPM_P2
2021/01/01 00:00:40;;;;;;;44.27;28.27;;;;;;;5.75;100.00;98249.58;1720980;83;21584;-64
2021/01/01 00:03:08;;;;;;;47.67;29.00;;;;;;;5.74;100.00;98240.16;1739514;82;21225;-64
2021/01/01 00:05:37;;;;;;;39.58;26.12;;;;;;;5.72;100.00;98242.24;1739474;82;21069;-64
2021/01/01 00:08:06;;;;;;;36.08;25.12;;;;;;;5.71;100.00;98243.09;1739438;82;21050;-63
2021/01/01 00:10:35;;;;;;;42.25;24.15;;;;;;;5.70;100.00;98233.28;1739649;82;21192;-64
2021/01/01 00:13:03;;;;;;;37.20;24.72;;;;;;;5.70;100.00;98235.84;1782242;80;21212;-63
2021/01/01 00:15:32;;;;;;;38.45;25.27;;;;;;;5.70;100.00;98221.76;1781960;80;21062;-65
2021/01/01 00:18:00;;;;;;;42.95;24.82;;;;;;;5.71;100.00;98228.59;1782219;80;21054;-62
2021/01/01 00:20:28;;;;;;;36.03;23.00;;;;;;;5.72;100.00;98222.63;1772177;80;21184;-64
2021/01/01 00:22:55;;;;;;;32.63;21.97;;;;;;;5.74;100.00;98226.08;1758113;80;21034;-64
2021/01/01 00:25:24;;;;;;;32.55;21.52;;;;;;;5.76;100.00;98219.30;1754783;82;21583;-64
2021/01/01 00:27:51;;;;;;;32.50;21.90;;;;;;;5.76;100.00;98210.33;1756469;81;21184;-64
2021/01/01 00:30:21;;;;;;;31.37;20.97;;;;;;;5.78;100.00;98215.07;1756396;82;21204;-64
2021/01/01 00:32:48;;;;;;;32.25;21.00;;;;;;;5.83;100.00;98220.28;1756488;81;21201;-64
2021/01/01 00:35:17;;;;;;;34.53;20.92;;;;;;;5.84;100.00;98207.48;1756261;82;21173;-64
2021/01/01 00:37:45;;;;;;;32.53;19.98;;;;;;;5.85;100.00;98219.86;1756445;81;21046;-64
2021/01/01 00:40:13;;;;;;;31.23;20.08;;;;;;;5.84;100.00;98207.48;1756326;82;21128;-64
2021/01/01 00:42:41;;;;;;;32.83;21.07;;;;;;;5.82;100.00;98197.63;1756292;82;21189;-64
2021/01/01 00:45:10;;;;;;;32.20;19.80;;;;;;;5.83;100.00;98196.81;1756277;82;21019;-63
2021/01/01 00:47:38;;;;;;;29.95;19.15;;;;;;;5.84;100.00;98194.68;1756491;82;21052;-64
2021/01/01 00:50:07;;;;;;;31.95;19.35;;;;;;;5.87;100.00;98198.99;1756465;82;21042;-64
2021/01/01 00:52:37;;;;;;;33.75;21.48;;;;;;;5.87;100.00;98190.89;1751327;82;21061;-63
2021/01/01 00:55:07;;;;;;;30.85;19.87;;;;;;;5.92;100.00;98193.95;1751205;82;21078;-63
2021/01/01 00:57:36;;;;;;;30.40;20.37;;;;;;;5.92;100.00;98202.92;1751465;82;21050;-63
2021/01/01 01:00:06;;;;;;;32.42;20.55;;;;;;;5.93;100.00;98189.27;1751224;82;21058;-62
2021/01/01 01:02:34;;;;;;;33.00;19.65;;;;;;;5.94;100.00;98193.17;1749536;81;21105;-62
2021/01/01 01:05:03;;;;;;;38.92;20.85;;;;;;;5.98;100.00;98188.56;1749100;82;21078;-62
2021/01/01 01:07:31;;;;;;;30.10;20.15;;;;;;;5.97;100.00;98184.69;1749074;82;21189;-61
2021/01/01 01:09:59;;;;;;;34.48;22.00;;;;;;;5.96;100.00;98185.53;1749193;82;21055;-62
2021/01/01 01:12:29;;;;;;;28.10;19.15;;;;;;;5.96;100.00;98185.53;1749134;82;21220;-63
2021/01/01 01:14:56;;;;;;;30.85;18.32;;;;;;;5.96;100.00;98177.85;1749037;82;21090;-63
2021/01/01 01:17:24;;;;;;;30.52;19.55;;;;;;;5.96;100.00;98175.29;1749063;82;21074;-63
2021/01/01 01:19:52;;;;;;;30.48;18.73;;;;;;;5.98;100.00;98181.27;1749041;82;21111;-63
2021/01/01 01:22:19;;;;;;;32.35;21.12;;;;;;;6.00;100.00;98165.52;1749150;82;21058;-63
2021/01/01 01:24:48;;;;;;;27.05;18.62;;;;;;;6.01;100.00;98171.11;1749315;82;21184;-63
2021/01/01 01:27:16;;;;;;;30.25;18.85;;;;;;;5.98;100.00;98167.19;1749221;82;21200;-62
2021/01/01 01:29:43;;;;;;;28.47;18.67;;;;;;;5.99;100.00;98153.56;1749248;82;21533;-66
2021/01/01 01:32:11;;;;;;;28.30;18.90;;;;;;;5.99;100.00;98153.56;1748988;82;21078;-62
2021/01/01 01:34:39;;;;;;;32.60;18.62;;;;;;;5.99;100.00;98146.73;1749144;82;21185;-63
2021/01/01 01:37:08;;;;;;;32.35;19.52;;;;;;;5.99;100.00;98144.60;1748990;82;21216;-64
2021/01/01 01:39:36;;;;;;;28.05;18.48;;;;;;;5.98;100.00;98155.27;1749038;82;21193;-63
2021/01/01 01:42:05;;;;;;;31.30;19.40;;;;;;;5.98;100.00;98147.98;1748985;82;21106;-63
2021/01/01 01:44:35;;;;;;;30.27;19.62;;;;;;;5.97;100.00;98130.91;1748974;82;21481;-62
2021/01/01 01:47:04;;;;;;;30.52;19.00;;;;;;;5.96;100.00;98154.80;1748994;82;21164;-64
2021/01/01 01:49:33;;;;;;;30.20;19.25;;;;;;;5.94;100.00;98148.79;1749217;82;21291;-62
2021/01/01 01:52:01;;;;;;;31.85;19.05;;;;;;;5.92;100.00;98150.42;1749163;82;21054;-62
2021/01/01 01:54:29;;;;;;;28.80;19.05;;;;;;;5.91;100.00;98146.16;1749024;82;21181;-62
2021/01/01 01:56:57;;;;;;;30.77;18.80;;;;;;;5.90;100.00;98141.84;1749189;82;21077;-63
2021/01/01 01:59:25;;;;;;;30.88;19.87;;;;;;;5.88;100.00;98140.14;1749155;82;21169;-63
2021/01/01 02:01:53;;;;;;;30.97;18.55;;;;;;;5.87;100.00;98150.34;1749131;82;21115;-62
2021/01/01 02:04:20;;;;;;;25.80;16.97;;;;;;;5.84;100.00;98128.11;1751328;82;21641;-62
2021/01/01 02:06:49;;;;;;;29.48;18.80;;;;;;;5.85;100.00;98123.45;1750919;79;21043;-63
2021/01/01 02:09:17;;;;;;;34.18;20.05;;;;;;;5.87;100.00;98130.71;1750139;82;21047;-63
2021/01/01 02:11:51;;;;;;;33.33;20.20;;;;;;;5.86;100.00;98121.32;1772633;80;21043;-63
2021/01/01 02:14:19;;;;;;;35.60;19.80;;;;;;;5.84;100.00;98124.70;1782480;80;21200;-62
2021/01/01 02:16:48;;;;;;;33.48;21.62;;;;;;;5.81;100.00;98118.25;1782363;80;21193;-63
2021/01/01 02:19:16;;;;;;;34.30;20.05;;;;;;;5.79;100.00;98105.84;1782563;80;21181;-63
2021/01/01 02:21:44;;;;;;;37.70;20.97;;;;;;;5.81;100.00;98111.85;1782410;80;21196;-64
2021/01/01 02:24:12;;;;;;;41.70;21.27;;;;;;;5.77;100.00;98110.92;1782323;80;21173;-63
2021/01/01 02:26:40;;;;;;;32.53;20.17;;;;;;;5.74;100.00;98099.36;1782264;80;21188;-64
2021/01/01 02:29:08;;;;;;;31.52;19.42;;;;;;;5.73;100.00;98106.61;1782183;80;21584;-64
2021/01/01 02:31:36;;;;;;;35.90;21.00;;;;;;;5.72;100.00;98101.45;1764215;80;20987;-64
2021/01/01 02:34:03;;;;;;;33.40;19.65;;;;;;;5.69;100.00;98091.17;1755687;80;21143;-64
2021/01/01 02:36:31;;;;;;;38.60;22.58;;;;;;;5.66;100.00;98118.43;1751379;82;21054;-65
2021/01/01 02:39:01;;;;;;;42.55;21.97;;;;;;;5.68;100.00;98089.45;1749528;82;21167;-63
2021/01/01 02:41:28;;;;;;;33.10;20.80;;;;;;;5.63;100.00;98113.69;1751399;82;21164;-63
2021/01/01 02:43:56;;;;;;;37.20;22.45;;;;;;;5.58;100.00;98098.25;1751548;82;21164;-64
2021/01/01 02:46:24;;;;;;;33.60;20.32;;;;;;;5.56;100.00;98092.66;1751539;82;21188;-64
2021/01/01 02:48:51;;;;;;;34.58;21.23;;;;;;;5.53;100.00;98079.83;1751528;82;21156;-64
2021/01/01 02:51:19;;;;;;;37.58;22.55;;;;;;;5.52;100.00;98080.64;1751580;82;21033;-64
2021/01/01 02:53:46;;;;;;;37.78;21.77;;;;;;;5.51;100.00;98087.89;1751819;82;21030;-64
2021/01/01 02:56:17;;;;;;;36.33;22.45;;;;;;;5.48;100.00;98075.05;1755767;80;21204;-65
2021/01/01 02:58:45;;;;;;;37.23;23.73;;;;;;;5.46;100.00;98076.29;1768388;80;21230;-63
2021/01/01 03:01:12;;;;;;;45.70;23.92;;;;;;;5.47;100.00;98068.19;1771057;80;21623;-64
2021/01/01 03:03:40;;;;;;;40.03;23.20;;;;;;;5.46;100.00;98077.99;1766451;80;21113;-64
2021/01/01 03:06:08;;;;;;;37.65;23.40;;;;;;;5.42;100.00;98067.72;1751366;82;21088;-64
2021/01/01 03:08:36;;;;;;;39.40;22.75;;;;;;;5.42;100.00;98061.74;1751375;82;21168;-64
2021/01/01 03:11:03;;;;;;;37.15;23.38;;;;;;;5.44;100.00;98054.92;1751541;82;21045;-63
2021/01/01 03:13:32;;;;;;;40.78;23.67;;;;;;;5.42;100.00;98069.42;1751664;82;21049;-62
2021/01/01 03:15:59;;;;;;;40.88;23.47;;;;;;;5.41;100.00;98036.55;1751356;82;21196;-64
2021/01/01 03:18:30;;;;;;;37.20;23.07;;;;;;;5.43;100.00;98055.78;1751469;82;21199;-64
2021/01/01 03:20:56;;;;;;;41.48;25.30;;;;;;;5.42;100.00;98047.25;1751454;82;21038;-64
2021/01/01 03:23:24;;;;;;;46.15;26.17;;;;;;;5.44;100.00;98044.30;1751418;82;21196;-65
2021/01/01 03:25:52;;;;;;;45.45;27.22;;;;;;;5.45;100.00;98043.88;1751585;82;21061;-64
2021/01/01 03:28:19;;;;;;;42.70;25.52;;;;;;;5.47;100.00;98036.20;1751357;82;21077;-63
2021/01/01 03:30:47;;;;;;;45.78;28.17;;;;;;;5.53;100.00;98020.97;1751642;82;21185;-64
2021/01/01 03:33:15;;;;;;;50.03;29.48;;;;;;;5.54;100.00;98035.05;1751553;82;21128;-64
2021/01/01 03:35:43;;;;;;;40.43;25.25;;;;;;;5.55;100.00;98039.77;1751337;82;21081;-63
2021/01/01 03:38:11;;;;;;;50.20;29.12;;;;;;;5.56;100.00;98016.75;1751363;82;21045;-64
2021/01/01 03:40:39;;;;;;;48.98;30.55;;;;;;;5.61;100.00;98024.08;1751354;82;21045;-63
2021/01/01 03:43:07;;;;;;;52.08;30.88;;;;;;;5.63;100.00;98008.75;1751366;82;21026;-64
2021/01/01 03:45:35;;;;;;;54.65;31.05;;;;;;;5.66;100.00;98008.80;1751434;82;21180;-64
2021/01/01 03:48:03;;;;;;;52.58;28.92;;;;;;;5.67;100.00;97993.86;1751491;82;21227;-64
2021/01/01 03:50:30;;;;;;;48.58;29.30;;;;;;;5.70;100.00;98009.30;1751616;82;21223;-63
2021/01/01 03:52:58;;;;;;;61.53;31.10;;;;;;;5.74;100.00;98021.28;1751561;82;21046;-65
2021/01/01 03:55:26;;;;;;;55.85;31.93;;;;;;;5.75;100.00;98010.22;1751687;82;21175;-64
2021/01/01 03:57:54;;;;;;;54.63;30.10;;;;;;;5.76;100.00;98008.09;1751350;82;21045;-63
2021/01/01 04:00:23;;;;;;;50.23;29.20;;;;;;;5.78;100.00;98008.12;1751298;82;21064;-63
2021/01/01 04:02:50;;;;;;;49.00;28.10;;;;;;;5.78;100.00;98027.33;1752466;80;21175;-64
2021/01/01 04:05:18;;;;;;;48.55;29.37;;;;;;;5.77;100.00;98008.95;1780241;80;21145;-64
2021/01/01 04:07:47;;;;;;;50.58;27.55;;;;;;;5.79;100.00;98013.67;1764210;81;21042;-64
2021/01/01 04:10:14;;;;;;;42.23;25.30;;;;;;;5.82;100.00;98023.95;1764497;81;21460;-65
2021/01/01 04:12:42;;;;;;;42.45;26.85;;;;;;;5.83;100.00;98000.95;1764328;81;21583;-64
2021/01/01 04:15:11;;;;;;;33.85;22.95;;;;;;;5.86;100.00;97985.62;1782230;80;21070;-64
2021/01/01 04:17:39;;;;;;;39.90;23.90;;;;;;;5.87;100.00;97979.64;1782545;80;21445;-65
2021/01/01 04:20:14;;;;;;;38.85;24.05;;;;;;;5.90;100.00;97994.19;1782315;80;21185;-66
2021/01/01 04:22:41;;;;;;;36.23;22.35;;;;;;;5.91;100.00;97984.84;1782403;80;21046;-63
2021/01/01 04:25:11;;;;;;;37.00;22.58;;;;;;;5.93;100.00;97984.41;1782399;80;21180;-64
2021/01/01 04:27:39;;;;;;;34.78;22.62;;;;;;;5.97;100.00;97993.90;1782196;80;21055;-64
2021/01/01 04:30:08;;;;;;;41.30;22.75;;;;;;;5.96;100.00;97967.86;1782346;80;21050;-64
2021/01/01 04:32:36;;;;;;;34.92;22.22;;;;;;;5.98;100.00;97984.08;1782397;80;21038;-64
2021/01/01 04:35:05;;;;;;;32.65;21.23;;;;;;;6.00;100.00;97986.25;1782201;80;21201;-65
2021/01/01 04:37:33;;;;;;;39.08;23.83;;;;;;;6.02;100.00;97967.50;1782186;80;21078;-65
2021/01/01 04:40:01;;;;;;;35.75;23.10;;;;;;;6.01;100.00;97958.54;1782247;80;21066;-64
2021/01/01 04:42:29;;;;;;;38.42;24.35;;;;;;;6.02;100.00;98016.59;1782369;80;21019;-64
2021/01/01 04:44:57;;;;;;;37.95;21.77;;;;;;;6.02;100.00;97965.37;1758536;80;21062;-64
2021/01/01 04:47:27;;;;;;;36.28;21.70;;;;;;;6.03;100.00;97970.52;1782386;80;21184;-64
2021/01/01 04:49:55;;;;;;;29.87;19.12;;;;;;;6.01;100.00;97976.47;1782225;80;21043;-64
2021/01/01 04:52:25;;;;;;;34.75;21.48;;;;;;;6.01;100.00;97966.22;1782225;80;21050;-65
2021/01/01 04:54:54;;;;;;;31.70;20.75;;;;;;;6.02;100.00;97964.09;1782290;80;21220;-64
2021/01/01 04:57:22;;;;;;;27.60;16.57;;;;;;;6.02;100.00;97947.44;1782375;80;21508;-64
2021/01/01 04:59:50;;;;;;;26.75;17.32;;;;;;;6.01;100.00;97955.55;1782329;80;21240;-64
2021/01/01 05:02:18;;;;;;;27.70;17.50;;;;;;;6.00;100.00;97946.55;1782381;80;21046;-64
2021/01/01 05:04:49;;;;;;;24.37;16.57;;;;;;;5.97;100.00;97951.64;1778117;80;21228;-64
2021/01/01 05:07:19;;;;;;;28.07;17.80;;;;;;;5.94;100.00;97972.09;1776558;81;21039;-63
2021/01/01 05:09:49;;;;;;;23.85;15.95;;;;;;;5.90;100.00;97980.53;1776298;81;21066;-65
2021/01/01 05:12:16;;;;;;;24.67;15.58;;;;;;;5.88;100.00;97982.67;1776388;81;21055;-64
2021/01/01 05:14:44;;;;;;;22.82;13.78;;;;;;;5.88;100.00;97953.22;1776569;81;21043;-62
2021/01/01 05:17:14;;;;;;;24.10;15.30;;;;;;;5.85;100.00;97948.06;1776360;81;21090;-62
2021/01/01 05:19:45;;;;;;;26.07;16.90;;;;;;;5.81;100.00;97943.73;1776591;81;21417;-62
2021/01/01 05:22:13;;;;;;;29.18;16.20;;;;;;;5.79;100.00;97943.27;1776366;81;21564;-62
2021/01/01 05:24:50;;;;;;;27.02;16.52;;;;;;;5.73;100.00;97945.34;1776301;81;21027;-63
2021/01/01 05:27:18;;;;;;;26.02;17.05;;;;;;;5.71;100.00;97950.84;1775986;81;21074;-63
2021/01/01 05:29:57;;;;;;;23.00;15.48;;;;;;;5.73;100.00;97953.44;1776271;81;21188;-63
2021/01/01 05:32:31;;;;;;;24.57;14.73;;;;;;;5.74;100.00;97967.95;1776252;81;21078;-62
2021/01/01 05:34:59;;;;;;;23.67;14.78;;;;;;;5.73;100.00;97926.14;1776305;81;21058;-61
2021/01/01 05:37:35;;;;;;;28.73;15.70;;;;;;;5.75;100.00;97955.19;1776266;81;21035;-63
2021/01/01 05:40:09;;;;;;;26.45;14.70;;;;;;;5.77;100.00;97954.76;1776462;81;21457;-62
2021/01/01 05:42:38;;;;;;;27.30;16.12;;;;;;;5.80;100.00;97950.98;1776583;80;21042;-65
2021/01/01 05:45:18;;;;;;;25.40;15.98;;;;;;;5.82;100.00;97950.56;1776417;81;21031;-61
2021/01/01 05:48:07;;;;;;;26.93;16.75;;;;;;;5.87;100.00;97950.63;1776233;81;21070;-64
2021/01/01 05:50:36;;;;;;;30.62;17.30;;;;;;;5.86;100.00;97945.94;1776449;81;21505;-61
2021/01/01 05:53:15;;;;;;;28.50;17.75;;;;;;;5.90;100.00;97954.93;1776466;81;21177;-62
2021/01/01 05:55:45;;;;;;;27.67;17.65;;;;;;;5.88;100.00;97943.41;1776405;81;21225;-64
2021/01/01 05:58:24;;;;;;;29.67;18.30;;;;;;;5.87;100.00;97938.67;1776463;81;21057;-63
2021/01/01 06:00:56;;;;;;;29.07;17.90;;;;;;;5.88;100.00;97937.00;1776326;81;21047;-63
2021/01/01 06:03:28;;;;;;;28.47;17.55;;;;;;;5.90;100.00;97940.42;1776165;80;21052;-63
2021/01/01 06:05:58;;;;;;;29.63;18.20;;;;;;;5.90;100.00;97934.45;1782280;80;21197;-63
2021/01/01 06:08:30;;;;;;;32.10;18.80;;;;;;;5.93;100.00;97925.52;1782472;80;21011;-64
2021/01/01 06:11:05;;;;;;;30.88;18.45;;;;;;;5.96;100.00;97930.73;1782406;80;21082;-63
2021/01/01 06:13:35;;;;;;;29.70;19.20;;;;;;;5.97;100.00;97936.28;1782458;80;21217;-63
2021/01/01 06:16:09;;;;;;;32.48;18.62;;;;;;;5.98;100.00;97936.70;1782283;80;21031;-63
2021/01/01 06:18:35;;;;;;;29.72;19.35;;;;;;;6.00;100.00;97929.91;1782489;80;21678;-63
2021/01/01 06:21:06;;;;;;;31.93;17.73;;;;;;;5.99;100.00;97934.61;1782402;80;21099;-64
2021/01/01 06:23:39;;;;;;;30.70;18.62;;;;;;;6.00;100.00;97920.95;1782295;80;21623;-64
2021/01/01 06:26:09;;;;;;;29.98;19.17;;;;;;;5.98;100.00;97926.46;1782564;80;21043;-63
2021/01/01 06:28:43;;;;;;;42.03;19.80;;;;;;;6.00;100.00;97928.63;1782371;80;21196;-63
2021/01/01 06:31:12;;;;;;;31.25;19.40;;;;;;;6.01;100.00;97929.09;1782530;80;21168;-64
2021/01/01 06:33:43;;;;;;;31.57;18.90;;;;;;;6.03;100.00;97887.69;1782487;80;21054;-64
2021/01/01 06:36:39;;;;;;;36.40;18.15;;;;;;;6.05;100.00;97938.51;1782397;80;21181;-64
2021/01/01 06:39:09;;;;;;;32.53;19.40;;;;;;;6.06;100.00;97944.94;1782283;80;21196;-64
2021/01/01 06:41:45;;;;;;;30.65;18.05;;;;;;;6.07;100.00;97926.59;1779025;80;21058;-63
2021/01/01 06:44:40;;;;;;;31.20;16.60;;;;;;;6.08;100.00;97921.89;1782686;80;21457;-64
2021/01/01 06:47:33;;;;;;;26.90;16.17;;;;;;;6.12;100.00;97902.31;1782284;80;21289;-64
2021/01/01 06:50:01;;;;;;;28.95;16.87;;;;;;;6.16;100.00;97922.87;1772415;80;21196;-64
2021/01/01 06:52:30;;;;;;;33.92;17.73;;;;;;;6.20;100.00;97898.98;1782410;80;21042;-63
2021/01/01 06:55:01;;;;;;;30.00;15.95;;;;;;;6.23;100.00;97940.03;1779918;80;21082;-64
2021/01/01 06:57:30;;;;;;;27.05;14.75;;;;;;;6.27;100.00;97918.71;1782437;80;21043;-65
2021/01/01 06:59:58;;;;;;;27.87;16.02;;;;;;;6.28;100.00;97935.83;1782242;80;21031;-65
2021/01/01 07:02:29;;;;;;;29.55;15.00;;;;;;;6.31;100.00;97910.66;1782348;80;21197;-64
2021/01/01 07:04:59;;;;;;;27.37;15.10;;;;;;;6.33;100.00;97908.95;1778490;80;21094;-65
2021/01/01 07:07:43;;;;;;;24.57;13.75;;;;;;;6.38;100.00;97903.88;1776444;80;21184;-66
2021/01/01 07:10:34;;;;;;;27.90;15.50;;;;;;;6.37;100.00;97914.55;1776351;80;21121;-64
2021/01/01 07:13:18;;;;;;;26.25;12.43;;;;;;;6.38;100.00;97932.06;1776418;81;21041;-64
2021/01/01 07:15:47;;;;;;;22.58;13.55;;;;;;;6.38;100.00;97924.38;1776421;81;21059;-64
2021/01/01 07:18:19;;;;;;;24.98;13.15;;;;;;;6.39;100.00;97935.08;1776184;80;21047;-64
2021/01/01 07:20:47;;;;;;;20.75;12.07;;;;;;;6.39;100.00;97927.39;1776489;81;21046;-64
2021/01/01 07:23:15;;;;;;;18.02;10.40;;;;;;;6.40;100.00;97918.85;1776402;81;21075;-64
2021/01/01 07:25:42;;;;;;;16.97;10.78;;;;;;;6.44;100.00;97939.84;1776510;80;21257;-65
2021/01/01 07:28:10;;;;;;;20.70;11.63;;;;;;;6.47;100.00;97907.83;1776325;81;21042;-65
2021/01/01 07:30:38;;;;;;;15.83;9.88;;;;;;;6.47;100.00;97942.42;1776212;81;21058;-65
2021/01/01 07:33:06;;;;;;;21.95;10.78;;;;;;;6.51;100.00;97924.94;1776221;81;21217;-64
2021/01/01 07:35:33;;;;;;;17.10;10.35;;;;;;;6.53;100.00;97951.45;1776306;81;21023;-65
2021/01/01 07:38:06;;;;;;;16.15;10.82;;;;;;;6.52;100.00;97942.05;1776276;81;21185;-64
2021/01/01 07:40:39;;;;;;;15.25;9.78;;;;;;;6.53;100.00;97929.66;1776524;81;21237;-64
2021/01/01 07:43:09;;;;;;;18.10;10.53;;;;;;;6.55;100.00;97961.30;1774437;81;21035;-64
2021/01/01 07:45:40;;;;;;;18.95;9.93;;;;;;;6.58;100.00;97956.20;1757137;82;21026;-64
2021/01/01 07:48:08;;;;;;;15.93;9.50;;;;;;;6.58;100.00;97934.41;1758266;82;21132;-65
2021/01/01 07:50:49;;;;;;;17.90;10.32;;;;;;;6.61;100.00;97971.61;1841156;78;21011;-64
2021/01/01 07:53:18;;;;;;;15.25;9.15;;;;;;;6.61;100.00;97971.61;1861638;77;21042;-64
2021/01/01 07:55:45;;;;;;;18.25;10.75;;;;;;;6.62;100.00;97975.91;1861611;77;21038;-64
2021/01/01 07:58:15;;;;;;;13.72;9.25;;;;;;;6.66;100.00;97954.56;1861571;77;21038;-65
2021/01/01 08:00:47;;;;;;;17.67;10.03;;;;;;;6.71;100.00;97965.73;1789296;80;21051;-64
2021/01/01 08:03:15;;;;;;;15.78;11.25;;;;;;;6.73;100.00;97968.32;1861739;77;21173;-65
2021/01/01 08:05:46;;;;;;;17.07;10.90;;;;;;;6.78;100.00;97954.27;1861812;77;21034;-65
2021/01/01 08:08:19;;;;;;;18.12;11.10;;;;;;;6.82;100.00;97968.42;1861684;77;21094;-65
2021/01/01 08:10:49;;;;;;;20.48;10.93;;;;;;;6.85;100.00;97971.44;1861839;77;21058;-64
2021/01/01 08:13:34;;;;;;;23.20;11.95;;;;;;;6.89;100.00;97961.62;1789240;80;21015;-64
2021/01/01 08:16:16;;;;;;;18.20;11.05;;;;;;;6.94;100.00;97971.08;1789118;80;21031;-64
2021/01/01 08:18:44;;;;;;;19.55;11.95;;;;;;;7.06;100.00;97978.04;1861768;77;21177;-64
2021/01/01 08:21:12;;;;;;;17.65;10.40;;;;;;;7.15;100.00;97968.30;1789331;80;21208;-64
2021/01/01 08:23:47;;;;;;;20.52;11.80;;;;;;;7.27;100.00;97958.54;1861624;77;21002;-64
2021/01/01 08:26:16;;;;;;;19.10;12.28;;;;;;;7.37;100.00;97974.44;1862009;77;21161;-64
2021/01/01 08:28:45;;;;;;;22.60;13.22;;;;;;;7.45;100.00;97966.80;1861700;77;21042;-64
2021/01/01 08:31:17;;;;;;;20.80;11.53;;;;;;;7.50;100.00;97977.53;1861588;77;21030;-64
2021/01/01 08:33:45;;;;;;;;;;;;;;;7.57;100.00;97989.56;1859569;77;21180;-64
2021/01/01 08:36:13;;;;;;;22.35;14.10;;;;;;;7.65;100.00;97993.90;1862096;77;20134;-65
2021/01/01 08:38:43;;;;;;;23.77;14.13;;;;;;;7.72;100.00;98001.66;1861870;77;21180;-64
2021/01/01 08:41:18;;;;;;;22.15;13.45;;;;;;;7.81;100.00;97999.56;1789499;80;21164;-64
2021/01/01 08:43:46;;;;;;;19.85;12.65;;;;;;;7.92;100.00;98003.07;1789540;80;21512;-64
2021/01/01 08:46:17;;;;;;;16.42;10.60;;;;;;;8.03;100.00;98001.84;1789561;80;21049;-64
2021/01/01 08:48:45;;;;;;;20.55;11.48;;;;;;;8.15;100.00;98013.48;1861772;77;21023;-64
2021/01/01 08:51:13;;;;;;;18.02;10.08;;;;;;;8.23;100.00;97998.95;1849551;77;21039;-64
2021/01/01 08:53:42;;;;;;;20.02;11.12;;;;;;;8.31;100.00;98001.98;1849494;77;21169;-63
2021/01/01 08:56:11;;;;;;;19.65;10.60;;;;;;;8.38;100.00;98016.16;1830915;77;21015;-63
2021/01/01 08:58:39;;;;;;;15.72;10.10;;;;;;;8.46;100.00;98014.50;1824338;78;21165;-62
2021/01/01 09:01:16;;;;;;;12.95;8.25;;;;;;;8.60;100.00;98023.97;1805056;79;21521;-64
2021/01/01 09:03:44;;;;;;;17.77;9.85;;;;;;;8.66;100.00;98016.30;1824632;79;21030;-63
2021/01/01 09:06:19;;;;;;;16.37;9.85;;;;;;;8.73;100.00;98024.88;1824515;79;21063;-64
2021/01/01 09:08:47;;;;;;;14.63;8.03;;;;;;;8.79;100.00;98030.91;1824338;79;21030;-64
2021/01/01 09:11:23;;;;;;;11.05;7.12;;;;;;;8.83;100.00;98030.08;1824630;78;21162;-64
2021/01/01 09:14:05;;;;;;;11.35;7.15;;;;;;;8.90;100.00;98033.10;1763168;81;21018;-64
2021/01/01 09:16:34;;;;;;;11.22;7.00;;;;;;;8.98;100.00;98034.81;1755982;80;21198;-65
2021/01/01 09:19:10;;;;;;;10.82;7.42;;;;;;;9.01;100.00;98034.84;1753984;82;21193;-64
2021/01/01 09:21:38;;;;;;;11.10;6.20;;;;;;;9.00;100.00;98044.69;1753714;82;21624;-65
2021/01/01 09:24:07;;;;;;;13.75;6.00;;;;;;;8.98;100.00;98052.82;1755808;81;21035;-64
2021/01/01 09:26:35;;;;;;;9.30;5.28;;;;;;;8.99;100.00;98055.84;1753809;81;21054;-64
2021/01/01 09:29:08;;;;;;;8.88;5.75;;;;;;;8.99;100.00;98045.55;1753435;82;21054;-64
2021/01/01 09:31:38;;;;;;;8.10;5.58;;;;;;;8.97;100.00;98054.97;1753484;82;21196;-67
2021/01/01 09:34:20;;;;;;;8.10;5.33;;;;;;;8.99;100.00;98057.13;1808906;79;21047;-67
2021/01/01 09:36:48;;;;;;;8.68;5.20;;;;;;;8.99;100.00;98063.56;1808316;79;21039;-64
2021/01/01 09:39:16;;;;;;;10.82;5.80;;;;;;;9.01;100.00;98051.13;1808583;79;21165;-64
2021/01/01 09:41:48;;;;;;;9.75;5.45;;;;;;;9.03;100.00;98069.13;1801328;79;21177;-63
2021/01/01 09:44:16;;;;;;;;;;;;;;;9.08;100.00;98067.42;1789339;79;21015;-64
2021/01/01 09:46:44;;;;;;;9.55;5.87;;;;;;;9.10;100.00;98069.59;1795522;80;20137;-64
2021/01/01 09:49:12;;;;;;;7.33;4.83;;;;;;;9.09;100.00;98065.30;1795499;80;21081;-64
2021/01/01 09:51:41;;;;;;;8.53;5.10;;;;;;;9.12;100.00;98065.30;1795336;79;21066;-64
2021/01/01 09:54:09;;;;;;;16.27;8.85;;;;;;;9.15;99.97;98067.88;1795551;80;21054;-64
2021/01/01 09:56:37;;;;;;;8.80;6.15;;;;;;;9.21;100.00;98060.19;1795681;79;21089;-64
2021/01/01 09:59:05;;;;;;;8.05;5.22;;;;;;;9.28;99.60;98063.61;1795873;79;21030;-62
2021/01/01 10:01:33;;;;;;;10.30;5.50;;;;;;;9.34;99.49;98070.08;1794843;79;21109;-64
2021/01/01 10:04:01;;;;;;;7.47;4.55;;;;;;;9.39;99.37;98061.05;1796286;79;21054;-63
2021/01/01 10:06:29;;;;;;;7.95;5.05;;;;;;;9.43;99.05;98071.80;1792295;79;21140;-63
2021/01/01 10:08:58;;;;;;;8.98;4.65;;;;;;;9.48;98.84;98061.06;1795684;79;21011;-63
2021/01/01 10:11:26;;;;;;;7.35;4.67;;;;;;;9.52;98.73;98067.95;1797148;79;21034;-62
2021/01/01 10:13:53;;;;;;;7.72;5.05;;;;;;;9.54;97.88;98061.06;1800745;79;21409;-62
2021/01/01 10:16:21;;;;;;;9.75;5.80;;;;;;;9.51;97.87;98070.92;1793000;79;21037;-62
2021/01/01 10:18:49;;;;;;;17.80;8.43;;;;;;;9.50;98.06;98079.96;1793060;79;22274;-62
2021/01/01 10:21:20;;;;;;;10.00;5.17;;;;;;;9.51;97.85;98072.22;1799828;79;21051;-62
2021/01/01 10:23:48;;;;;;;10.23;6.10;;;;;;;9.56;98.08;98070.94;1761355;81;21196;-62
2021/01/01 10:26:16;;;;;;;8.93;5.78;;;;;;;9.59;97.69;98073.51;1808758;79;21058;-62
2021/01/01 10:28:43;;;;;;;10.55;5.72;;;;;;;9.60;97.40;98080.40;1808763;79;21200;-62
2021/01/01 10:31:11;;;;;;;8.23;5.25;;;;;;;9.61;97.38;98078.23;1808553;79;21043;-62
2021/01/01 10:33:40;;;;;;;10.93;5.25;;;;;;;9.62;97.16;98079.13;1759090;81;21527;-63
2021/01/01 10:36:12;;;;;;;8.13;4.97;;;;;;;9.64;97.06;98091.14;1808167;79;21177;-62
2021/01/01 10:38:40;;;;;;;9.13;5.42;;;;;;;9.63;96.84;98097.14;1808123;79;21184;-62
2021/01/01 10:41:13;;;;;;;7.53;5.17;;;;;;;9.58;96.54;98096.27;1808306;79;21453;-62
2021/01/01 10:43:41;;;;;;;6.55;4.35;;;;;;;9.55;96.91;98100.14;1807968;79;21043;-62
2021/01/01 10:46:09;;;;;;;8.28;4.90;;;;;;;9.57;97.06;98098.43;1808245;79;21445;-65
2021/01/01 10:48:36;;;;;;;10.08;5.53;;;;;;;9.60;97.00;98091.14;1807973;79;21529;-62
2021/01/01 10:51:05;;;;;;;8.10;4.95;;;;;;;9.59;96.78;98105.70;1808066;78;21165;-63
2021/01/01 10:53:32;;;;;;;9.58;4.75;;;;;;;9.58;96.66;98103.15;1808071;79;21177;-63
2021/01/01 10:56:01;;;;;;;9.10;4.70;;;;;;;9.56;96.58;98097.98;1809029;79;21033;-62
2021/01/01 10:58:29;;;;;;;8.30;5.37;;;;;;;9.55;96.33;98104.00;1839694;77;21019;-63
2021/01/01 11:00:57;;;;;;;11.38;5.65;;;;;;;9.54;96.28;98108.70;1849412;77;21170;-62
2021/01/01 11:03:24;;;;;;;8.78;5.28;;;;;;;9.53;96.37;98109.58;1856499;77;21092;-62
2021/01/01 11:05:52;;;;;;;9.10;5.00;;;;;;;9.54;96.35;98115.14;1856563;77;21043;-62
2021/01/01 11:08:20;;;;;;;8.95;5.33;;;;;;;9.52;96.10;98113.02;1856823;77;21184;-62
2021/01/01 11:10:49;;;;;;;8.98;5.30;;;;;;;9.50;96.18;98116.02;1856534;77;21177;-62
2021/01/01 11:13:16;;;;;;;8.33;5.10;;;;;;;9.50;96.19;98118.59;1856554;77;21475;-62
2021/01/01 12:25:19;;;;;;;12.95;9.08;;;;;;;8.92;93.24;98182.33;1814581;78;21134;-61
2021/01/01 12:27:50;;;;;;;13.80;8.88;;;;;;;8.99;92.64;98187.09;1818046;78;21434;-62
2021/01/01 12:30:20;;;;;;;15.65;10.20;;;;;;;9.05;92.28;98181.95;1772239;80;21027;-61
2021/01/01 12:32:50;;;;;;;15.15;10.23;;;;;;;9.07;91.84;98189.27;1830428;77;21014;-62
2021/01/01 12:35:17;;;;;;;15.30;10.65;;;;;;;9.04;91.58;98187.53;1827954;77;21034;-62
2021/01/01 12:37:46;;;;;;;14.15;9.73;;;;;;;9.02;91.41;98192.24;1827907;77;21066;-62
2021/01/01 12:40:15;;;;;;;14.28;10.15;;;;;;;9.03;91.29;98202.95;1827912;77;21034;-61
2021/01/01 12:42:43;;;;;;;15.78;10.32;;;;;;;9.04;91.07;98211.13;1828196;77;21052;-61